createdAt,value
2023-03-04T00:00:14.981Z,-0.09
2023-03-04T00:02:42.276Z,-0.04
2023-03-04T00:05:09.670Z,-0.04
2023-03-04T00:07:37.110Z,-0.07
2023-03-04T00:10:05.392Z,-0.18
2023-03-04T00:12:32.705Z,-0.18
2023-03-04T00:15:03.023Z,-0.15
2023-03-04T00:17:31.617Z,-0.05
2023-03-04T00:19:58.973Z,-0.09
2023-03-04T00:22:26.246Z,-0.15
2023-03-04T00:24:53.492Z,-0.28
2023-03-04T00:27:20.757Z,-0.26
2023-03-04T00:29:47.993Z,-0.32
2023-03-04T00:32:16.321Z,-0.28
2023-03-04T00:34:43.601Z,-0.23
2023-03-04T00:37:10.851Z,-0.33
2023-03-04T00:39:38.096Z,-0.34
2023-03-04T00:42:05.368Z,-0.34
2023-03-04T00:44:32.676Z,-0.37
2023-03-04T00:46:59.939Z,-0.31
2023-03-04T00:49:27.258Z,-0.33
2023-03-04T00:51:54.498Z,-0.33
2023-03-04T00:54:21.866Z,-0.29
2023-03-04T00:56:49.092Z,-0.24
2023-03-04T00:59:16.461Z,-0.22
2023-03-04T01:01:43.841Z,-0.19
2023-03-04T01:04:11.278Z,-0.09
2023-03-04T01:06:38.639Z,-0.11
2023-03-04T01:09:06.136Z,-0.04
2023-03-04T01:11:33.400Z,0.00
2023-03-04T01:14:00.685Z,-0.09
2023-03-04T01:16:28.049Z,-0.13
2023-03-04T01:18:55.404Z,-0.13
2023-03-04T01:21:22.738Z,-0.06
2023-03-04T01:23:49.980Z,-0.05
2023-03-04T01:26:17.271Z,-0.09
2023-03-04T01:28:44.585Z,-0.11
2023-03-04T01:31:11.890Z,-0.14
2023-03-04T01:33:39.274Z,-0.18
2023-03-04T01:36:06.752Z,-0.31
2023-03-04T01:38:34.080Z,-0.32
2023-03-04T01:41:01.791Z,-0.38
2023-03-04T01:43:29.868Z,-0.40
2023-03-04T01:45:57.139Z,-0.32
2023-03-04T01:48:28.927Z,-0.28
2023-03-04T01:50:56.254Z,-0.30
2023-03-04T01:53:24.871Z,-0.19
2023-03-04T01:55:53.287Z,-0.04
2023-03-04T01:58:20.735Z,-0.03
2023-03-04T02:00:48.040Z,0.03
2023-03-04T02:03:16.562Z,0.11
2023-03-04T02:05:45.969Z,0.08
2023-03-04T02:08:13.310Z,0.09
2023-03-04T02:10:41.316Z,0.06
2023-03-04T02:13:08.733Z,0.03
2023-03-04T02:15:36.030Z,0.13
2023-03-04T02:18:04.574Z,-0.02
2023-03-04T02:20:35.274Z,-0.08
2023-03-04T02:23:26.110Z,-0.29
2023-03-04T02:26:10.057Z,-0.41
2023-03-04T02:28:37.370Z,-0.41
2023-03-04T02:31:04.923Z,-0.53
2023-03-04T02:33:33.183Z,-0.55
2023-03-04T02:36:00.496Z,-0.69
2023-03-04T02:38:27.882Z,-0.69
2023-03-04T02:40:55.234Z,-0.74
2023-03-04T02:43:22.495Z,-0.77
2023-03-04T02:45:50.359Z,-0.75
2023-03-04T02:48:20.321Z,-0.80
2023-03-04T02:50:49.277Z,-0.83
2023-03-04T02:53:16.813Z,-0.93
2023-03-04T02:55:44.869Z,-0.96
2023-03-04T02:58:13.069Z,-0.96
2023-03-04T03:00:40.993Z,-0.97
2023-03-04T03:03:09.498Z,-0.95
2023-03-04T03:05:36.898Z,-0.93
2023-03-04T03:08:04.805Z,-0.99
2023-03-04T03:10:32.451Z,-0.98
2023-03-04T03:13:00.140Z,-0.98
2023-03-04T03:15:27.605Z,-1.00
2023-03-04T03:17:56.812Z,-1.17
2023-03-04T03:20:24.127Z,-1.03
2023-03-04T03:22:52.204Z,-1.04
2023-03-04T03:25:19.596Z,-1.10
2023-03-04T03:27:47.027Z,-1.05
2023-03-04T03:30:15.390Z,-1.05
2023-03-04T03:32:42.907Z,-1.14
2023-03-04T03:35:10.747Z,-1.18
2023-03-04T03:37:38.140Z,-1.18
2023-03-04T03:40:05.881Z,-1.04
2023-03-04T03:42:33.283Z,-1.08
2023-03-04T03:45:00.551Z,-1.08
2023-03-04T03:47:27.792Z,-1.17
2023-03-04T03:49:55.087Z,-1.17
2023-03-04T03:52:22.400Z,-1.26
2023-03-04T03:54:49.729Z,-1.19
2023-03-04T03:57:17.006Z,-1.32
2023-03-04T03:59:44.300Z,-1.25
2023-03-04T04:02:11.651Z,-1.22
2023-03-04T04:04:38.946Z,-1.33
2023-03-04T04:07:06.193Z,-1.33
2023-03-04T04:09:33.448Z,-1.29
2023-03-04T04:12:00.711Z,-1.40
2023-03-04T04:14:27.993Z,-1.47
2023-03-04T04:16:55.325Z,-1.50
2023-03-04T04:19:22.664Z,-1.54
2023-03-04T04:21:49.950Z,-1.63
2023-03-04T04:24:17.274Z,-1.65
2023-03-04T04:26:44.562Z,-1.60
2023-03-04T04:29:13.742Z,-1.56
2023-03-04T04:31:41.073Z,-1.65
2023-03-04T04:34:08.476Z,-1.76
2023-03-04T04:36:35.921Z,-1.68
2023-03-04T04:39:03.479Z,-1.74
2023-03-04T04:41:33.414Z,-1.69
2023-03-04T04:44:00.693Z,-1.78
2023-03-04T04:46:28.286Z,-1.69
2023-03-04T04:48:55.965Z,-1.92
2023-03-04T04:51:23.270Z,-1.93
2023-03-04T04:53:50.587Z,-1.97
2023-03-04T04:56:22.669Z,-1.95
2023-03-04T04:58:50.094Z,-2.06
2023-03-04T05:01:17.517Z,-2.13
2023-03-04T05:03:44.887Z,-2.14
2023-03-04T05:06:13.079Z,-2.13
2023-03-04T05:08:40.364Z,-2.22
2023-03-04T05:11:07.765Z,-2.21
2023-03-04T05:13:35.170Z,-2.29
2023-03-04T05:16:02.665Z,-2.23
2023-03-04T05:18:30.000Z,-2.13
2023-03-04T05:20:58.754Z,-2.08
2023-03-04T05:23:26.839Z,-2.03
2023-03-04T05:25:54.164Z,-2.00
2023-03-04T05:28:21.441Z,-2.00
2023-03-04T05:30:48.847Z,-2.02
2023-03-04T05:33:16.564Z,-1.97
2023-03-04T05:35:44.265Z,-1.96
2023-03-04T05:38:13.527Z,-2.06
2023-03-04T05:40:43.846Z,-2.11
2023-03-04T05:43:11.272Z,-2.19
2023-03-04T05:45:38.651Z,-2.20
2023-03-04T05:48:06.086Z,-2.20
2023-03-04T05:50:33.339Z,-2.12
2023-03-04T05:53:00.591Z,-2.09
2023-03-04T05:55:29.950Z,-2.03
2023-03-04T05:57:57.439Z,-1.99
2023-03-04T06:00:24.967Z,-1.76
2023-03-04T06:02:52.472Z,-1.53
2023-03-04T06:05:19.927Z,-1.53
2023-03-04T06:07:47.347Z,-1.42
2023-03-04T06:10:16.384Z,-1.37
2023-03-04T06:12:43.752Z,-1.38
2023-03-04T06:15:11.669Z,-1.47
2023-03-04T06:17:41.855Z,-1.36
2023-03-04T06:20:10.949Z,-1.23
2023-03-04T06:22:38.228Z,-1.14
2023-03-04T06:25:05.990Z,-1.16
2023-03-04T06:27:33.235Z,-1.21
2023-03-04T06:30:01.747Z,-1.27
2023-03-04T06:32:29.241Z,-1.23
2023-03-04T06:34:56.554Z,-1.15
2023-03-04T06:37:23.906Z,-1.19
2023-03-04T06:39:51.224Z,-1.19
2023-03-04T06:42:18.651Z,-1.20
2023-03-04T06:44:45.942Z,-1.04
2023-03-04T06:47:13.303Z,-0.81
2023-03-04T06:49:40.653Z,-0.79
2023-03-04T06:52:07.895Z,-0.71
2023-03-04T06:54:35.216Z,-0.59
2023-03-04T06:57:02.463Z,-0.54
2023-03-04T06:59:29.722Z,-0.40
2023-03-04T07:01:57.018Z,-0.10
2023-03-04T07:04:24.826Z,-0.17
2023-03-04T07:06:52.196Z,-0.11
2023-03-04T07:09:19.504Z,0.03
2023-03-04T07:11:46.816Z,0.27
2023-03-04T07:14:14.216Z,0.37
2023-03-04T07:16:41.591Z,0.50
2023-03-04T07:19:08.901Z,0.72
2023-03-04T07:21:36.214Z,0.84
2023-03-04T07:24:03.854Z,0.96
2023-03-04T07:26:31.130Z,1.02
2023-03-04T07:28:59.977Z,1.04
2023-03-04T07:31:30.087Z,1.06
2023-03-04T07:34:05.290Z,1.27
2023-03-04T07:36:33.236Z,1.25
2023-03-04T07:39:00.625Z,1.49
2023-03-04T07:41:28.573Z,1.32
2023-03-04T07:43:58.697Z,1.22
2023-03-04T07:46:26.031Z,1.38
2023-03-04T07:48:53.392Z,1.28
2023-03-04T07:51:21.814Z,1.39
2023-03-04T07:53:51.897Z,1.30
2023-03-04T07:56:20.928Z,1.29
2023-03-04T07:58:48.224Z,1.18
2023-03-04T08:01:17.429Z,1.32
2023-03-04T08:03:44.944Z,1.04
2023-03-04T08:06:13.929Z,0.94
2023-03-04T08:08:41.318Z,0.68
2023-03-04T08:11:16.909Z,0.71
2023-03-04T08:13:44.281Z,0.91
2023-03-04T08:16:15.958Z,1.00
2023-03-04T08:18:44.458Z,1.08
2023-03-04T08:21:12.286Z,1.32
2023-03-04T08:23:39.988Z,1.55
2023-03-04T08:26:11.898Z,1.39
2023-03-04T08:28:39.256Z,0.95
2023-03-04T08:31:06.801Z,0.95
2023-03-04T08:33:34.271Z,1.13
2023-03-04T08:36:01.623Z,1.48
2023-03-04T08:38:28.909Z,1.55
2023-03-04T08:40:56.423Z,1.48
2023-03-04T08:43:24.128Z,1.25
2023-03-04T08:45:52.305Z,1.31
2023-03-04T08:48:20.049Z,1.14
2023-03-04T08:50:47.604Z,1.31
2023-03-04T08:53:15.000Z,1.17
2023-03-04T08:55:42.413Z,1.38
2023-03-04T08:58:09.761Z,1.53
2023-03-04T09:00:38.167Z,1.42
2023-03-04T09:03:05.402Z,1.58
2023-03-04T09:05:32.969Z,1.45
2023-03-04T09:08:00.341Z,1.58
2023-03-04T09:10:27.637Z,1.75
2023-03-04T09:12:55.003Z,1.88
2023-03-04T09:15:22.278Z,2.09
2023-03-04T09:17:49.622Z,2.24
2023-03-04T09:20:17.079Z,2.14
2023-03-04T09:22:44.337Z,2.22
2023-03-04T09:25:13.209Z,2.19
2023-03-04T09:27:40.640Z,2.32
2023-03-04T09:30:08.921Z,2.44
2023-03-04T09:32:36.357Z,2.72
2023-03-04T09:35:04.031Z,2.77
2023-03-04T09:37:31.411Z,2.99
2023-03-04T09:39:58.781Z,2.99
2023-03-04T09:42:28.804Z,3.08
2023-03-04T09:44:56.268Z,3.26
2023-03-04T09:47:23.620Z,3.50
2023-03-04T09:49:58.583Z,3.54
2023-03-04T09:52:31.295Z,3.34
2023-03-04T09:55:07.648Z,3.58
2023-03-04T09:57:44.374Z,3.76
2023-03-04T10:00:40.882Z,3.96
2023-03-04T10:03:19.033Z,4.05
2023-03-04T10:05:52.028Z,3.98
2023-03-04T10:08:41.159Z,4.10
2023-03-04T10:11:14.862Z,3.89
2023-03-04T10:13:57.355Z,3.96
2023-03-04T10:16:27.184Z,3.80
2023-03-04T10:19:36.242Z,4.01
2023-03-04T10:22:12.374Z,4.35
2023-03-04T10:24:39.669Z,4.61
2023-03-04T10:27:07.385Z,4.70
2023-03-04T10:29:34.734Z,4.65
2023-03-04T10:32:02.176Z,4.69
2023-03-04T10:34:29.640Z,4.86
2023-03-04T10:36:59.816Z,4.73
2023-03-04T10:39:28.137Z,4.90
2023-03-04T10:42:25.694Z,5.07
2023-03-04T10:45:00.240Z,4.79
2023-03-04T10:47:31.476Z,5.10
2023-03-04T10:50:00.264Z,5.01
2023-03-04T10:52:31.436Z,5.28
2023-03-04T10:55:00.613Z,5.48
2023-03-04T10:57:37.201Z,5.33
2023-03-04T11:00:34.904Z,5.45
2023-03-04T11:03:29.430Z,5.48
2023-03-04T11:06:20.961Z,5.82
2023-03-04T11:08:55.587Z,6.01
2023-03-04T11:11:31.234Z,6.34
2023-03-04T11:14:00.277Z,6.31
2023-03-04T11:16:29.674Z,6.22
2023-03-04T11:19:06.357Z,6.29
2023-03-04T11:21:39.903Z,6.37
2023-03-04T11:24:28.025Z,6.42
2023-03-04T11:27:06.208Z,6.49
2023-03-04T11:29:37.474Z,6.68
2023-03-04T11:32:26.359Z,6.72
2023-03-04T11:34:58.240Z,6.87
2023-03-04T11:37:47.973Z,6.97
2023-03-04T11:40:18.817Z,7.21
2023-03-04T11:42:59.772Z,7.16
2023-03-04T11:45:55.049Z,7.73
2023-03-04T11:48:37.024Z,7.48
2023-03-04T11:51:09.432Z,7.28
2023-03-04T11:53:37.570Z,7.36
2023-03-04T11:56:27.311Z,7.36
2023-03-04T11:59:00.763Z,7.69
2023-03-04T12:01:34.241Z,7.42
2023-03-04T12:04:32.092Z,7.81
2023-03-04T12:07:27.404Z,7.65
2023-03-04T12:10:15.380Z,7.90
2023-03-04T12:13:31.009Z,7.83
2023-03-04T12:16:24.338Z,8.22
2023-03-04T12:18:51.476Z,8.41
2023-03-04T12:21:44.403Z,8.12
2023-03-04T12:24:33.456Z,8.14
2023-03-04T12:27:22.986Z,8.25
2023-03-04T12:30:07.684Z,8.38
2023-03-04T12:32:43.845Z,8.55
2023-03-04T12:35:22.848Z,8.95
2023-03-04T12:38:15.043Z,9.21
2023-03-04T12:40:50.776Z,9.32
2023-03-04T12:43:41.359Z,9.09
2023-03-04T12:46:37.931Z,9.60
2023-03-04T12:49:36.024Z,9.91
2023-03-04T12:52:06.912Z,10.03
2023-03-04T12:54:41.045Z,10.38
2023-03-04T12:57:16.633Z,10.68
2023-03-04T12:59:46.854Z,10.69
2023-03-04T13:02:26.362Z,10.86
2023-03-04T13:05:18.464Z,11.26
2023-03-04T13:08:07.443Z,11.47
2023-03-04T13:10:34.704Z,11.60
2023-03-04T13:13:02.164Z,11.75
2023-03-04T13:15:31.537Z,11.59
2023-03-04T13:18:02.985Z,11.62
2023-03-04T13:20:30.191Z,11.88
2023-03-04T13:23:09.321Z,12.05
2023-03-04T13:25:50.557Z,12.17
2023-03-04T13:28:21.938Z,12.24
2023-03-04T13:30:52.288Z,12.24
2023-03-04T13:33:22.194Z,12.34
2023-03-04T13:35:58.087Z,12.28
2023-03-04T13:38:31.195Z,12.53
2023-03-04T13:41:24.917Z,12.73
2023-03-04T13:43:56.027Z,12.87
2023-03-04T13:46:24.035Z,12.97
2023-03-04T13:48:51.514Z,13.06
2023-03-04T13:51:29.798Z,12.96
2023-03-04T13:54:00.560Z,13.04
2023-03-04T13:56:36.626Z,12.54
2023-03-04T13:59:07.164Z,12.86
2023-03-04T14:01:36.074Z,12.91
2023-03-04T14:04:15.540Z,13.04
2023-03-04T14:06:43.876Z,12.91
2023-03-04T14:09:23.100Z,13.09
2023-03-04T14:11:51.151Z,13.08
2023-03-04T14:14:23.027Z,12.82
2023-03-04T14:16:51.717Z,12.97
2023-03-04T14:19:25.144Z,12.93
2023-03-04T14:21:52.503Z,13.04
2023-03-04T14:24:21.158Z,13.24
2023-03-04T14:26:48.534Z,13.62
2023-03-04T14:29:32.035Z,13.99
2023-03-04T14:31:59.417Z,14.93
2023-03-04T14:34:29.256Z,15.73
2023-03-04T14:36:56.573Z,14.94
2023-03-04T14:39:24.855Z,13.84
2023-03-04T14:41:52.125Z,13.39
2023-03-04T14:44:55.179Z,13.19
2023-03-04T14:47:28.369Z,12.40
2023-03-04T14:49:55.631Z,12.25
2023-03-04T14:52:42.947Z,12.05
2023-03-04T14:55:22.448Z,11.87
2023-03-04T14:57:58.503Z,11.93
2023-03-04T15:00:31.295Z,11.87
2023-03-04T15:03:16.072Z,11.78
2023-03-04T15:05:43.411Z,11.46
2023-03-04T15:08:32.154Z,11.60
2023-03-04T15:11:00.798Z,11.68
2023-03-04T15:13:49.778Z,11.65
2023-03-04T15:16:18.876Z,11.60
2023-03-04T15:18:59.473Z,11.44
2023-03-04T15:21:29.644Z,11.39
2023-03-04T15:23:56.874Z,11.28
2023-03-04T15:26:24.573Z,11.28
2023-03-04T15:28:51.851Z,11.16
2023-03-04T15:31:20.677Z,10.91
2023-03-04T15:33:47.955Z,10.86
2023-03-04T15:36:20.292Z,10.77
2023-03-04T15:38:49.246Z,10.45
2023-03-04T15:41:25.199Z,10.28
2023-03-04T15:43:55.565Z,10.05
2023-03-04T15:46:23.019Z,10.16
2023-03-04T15:48:50.390Z,10.17
2023-03-04T15:51:19.994Z,10.01
2023-03-04T15:53:48.706Z,9.89
2023-03-04T15:56:34.281Z,9.50
2023-03-04T15:59:12.631Z,9.17
2023-03-04T16:01:39.944Z,8.85
2023-03-04T16:04:11.437Z,8.64
2023-03-04T16:06:38.736Z,8.38
2023-03-04T16:09:09.289Z,8.28
2023-03-04T16:11:39.328Z,8.08
2023-03-04T16:14:06.646Z,7.94
2023-03-04T16:16:33.909Z,7.70
2023-03-04T16:19:01.202Z,7.63
2023-03-04T16:21:28.501Z,7.55
2023-03-04T16:23:55.884Z,7.41
2023-03-04T16:26:24.247Z,7.28
2023-03-04T16:28:52.389Z,7.29
2023-03-04T16:31:20.182Z,7.36
2023-03-04T16:33:47.596Z,7.19
2023-03-04T16:36:16.317Z,7.12
2023-03-04T16:38:43.735Z,6.93
2023-03-04T16:41:15.124Z,6.86
2023-03-04T16:43:42.932Z,6.71
2023-03-04T16:46:13.841Z,6.47
2023-03-04T16:48:41.282Z,6.44
2023-03-04T16:51:26.863Z,6.27
2023-03-04T16:53:58.122Z,6.18
2023-03-04T16:56:25.378Z,6.10
2023-03-04T16:58:54.265Z,6.05
2023-03-04T17:01:26.111Z,5.93
2023-03-04T17:03:53.860Z,5.91
2023-03-04T17:06:21.305Z,5.65
2023-03-04T17:08:48.625Z,5.58
2023-03-04T17:11:20.380Z,5.55
2023-03-04T17:13:47.730Z,5.58
2023-03-04T17:16:15.434Z,5.57
2023-03-04T17:18:44.273Z,5.52
2023-03-04T17:21:13.309Z,5.49
2023-03-04T17:23:40.569Z,5.51
2023-03-04T17:26:09.264Z,5.57
2023-03-04T17:28:37.114Z,5.54
2023-03-04T17:31:15.025Z,5.39
2023-03-04T17:33:43.833Z,5.42
2023-03-04T17:36:12.251Z,5.51
2023-03-04T17:38:39.681Z,5.59
2023-03-04T17:41:08.405Z,5.62
2023-03-04T17:43:35.655Z,5.80
2023-03-04T17:46:07.784Z,5.74
2023-03-04T17:48:35.264Z,6.07
2023-03-04T17:51:02.750Z,6.41
2023-03-04T17:53:30.141Z,6.45
2023-03-04T17:56:00.276Z,6.67
2023-03-04T17:58:28.495Z,6.69
2023-03-04T18:01:26.337Z,6.85
2023-03-04T18:03:53.912Z,7.13
2023-03-04T18:06:22.808Z,7.14
2023-03-04T18:08:50.128Z,7.14
2023-03-04T18:11:17.457Z,7.20
2023-03-04T18:13:44.860Z,7.14
2023-03-04T18:16:18.797Z,7.05
2023-03-04T18:18:46.129Z,7.06
2023-03-04T18:21:13.684Z,6.82
2023-03-04T18:23:40.930Z,6.81
2023-03-04T18:26:08.252Z,6.78
2023-03-04T18:28:35.593Z,6.76
2023-03-04T18:31:03.003Z,6.61
2023-03-04T18:33:30.382Z,6.63
2023-03-04T18:36:02.306Z,6.53
2023-03-04T18:38:29.948Z,6.55
2023-03-04T18:41:04.693Z,6.49
2023-03-04T18:43:31.963Z,6.30
2023-03-04T18:46:03.640Z,5.96
2023-03-04T18:48:31.945Z,5.74
2023-03-04T18:50:59.222Z,5.51
2023-03-04T18:53:30.508Z,5.35
2023-03-04T18:56:01.587Z,5.23
2023-03-04T18:58:29.209Z,5.16
2023-03-04T19:00:56.974Z,5.15
2023-03-04T19:03:24.286Z,5.06
2023-03-04T19:05:51.542Z,4.86
2023-03-04T19:08:18.822Z,4.82
2023-03-04T19:10:46.210Z,4.81
2023-03-04T19:13:13.556Z,4.78
2023-03-04T19:15:40.835Z,4.67
2023-03-04T19:18:08.093Z,4.58
2023-03-04T19:20:37.488Z,4.63
2023-03-04T19:23:05.664Z,4.63
2023-03-04T19:25:32.921Z,4.56
2023-03-04T19:28:01.105Z,4.59
2023-03-04T19:30:28.486Z,4.52
2023-03-04T19:32:55.765Z,4.43
2023-03-04T19:35:23.045Z,4.47
2023-03-04T19:37:50.321Z,4.39
2023-03-04T19:40:17.706Z,4.26
2023-03-04T19:42:44.944Z,4.24
2023-03-04T19:45:12.199Z,4.21
2023-03-04T19:47:39.570Z,4.13
2023-03-04T19:50:07.691Z,4.09
2023-03-04T19:52:35.031Z,4.00
2023-03-04T19:55:02.634Z,3.92
2023-03-04T19:57:30.002Z,3.96
2023-03-04T19:59:57.269Z,3.89
2023-03-04T20:02:24.515Z,3.81
2023-03-04T20:04:51.752Z,3.79
2023-03-04T20:07:19.066Z,3.62
2023-03-04T20:09:46.378Z,3.62
2023-03-04T20:12:13.643Z,3.57
2023-03-04T20:14:40.898Z,3.59
2023-03-04T20:17:08.293Z,3.58
2023-03-04T20:19:35.640Z,3.46
2023-03-04T20:22:03.124Z,3.57
2023-03-04T20:24:30.466Z,3.46
2023-03-04T20:26:57.758Z,3.49
2023-03-04T20:29:26.892Z,3.46
2023-03-04T20:31:54.286Z,3.38
2023-03-04T20:34:21.565Z,3.30
2023-03-04T20:36:48.819Z,3.22
2023-03-04T20:39:28.014Z,3.17
2023-03-04T20:42:00.221Z,3.10
2023-03-04T20:44:27.629Z,3.25
2023-03-04T20:46:55.105Z,3.17
2023-03-04T20:49:24.275Z,3.16
2023-03-04T20:51:52.273Z,3.21
2023-03-04T20:54:19.711Z,3.07
2023-03-04T20:56:47.072Z,3.01
2023-03-04T20:59:14.403Z,2.92
2023-03-04T21:01:42.826Z,2.83
2023-03-04T21:04:10.175Z,2.86
2023-03-04T21:06:38.848Z,2.93
2023-03-04T21:09:08.450Z,2.83
2023-03-04T21:11:42.342Z,2.81
2023-03-04T21:14:19.939Z,2.56
2023-03-04T21:16:47.228Z,2.37
2023-03-04T21:19:19.415Z,2.36
2023-03-04T21:21:47.599Z,2.10
2023-03-04T21:24:16.423Z,2.17
2023-03-04T21:26:45.414Z,2.04
2023-03-04T21:29:13.330Z,1.83
2023-03-04T21:31:42.316Z,1.92
2023-03-04T21:34:16.301Z,2.06
2023-03-04T21:36:43.595Z,2.04
2023-03-04T21:39:15.546Z,1.93
2023-03-04T21:41:42.818Z,1.80
2023-03-04T21:44:17.974Z,1.76
2023-03-04T21:46:58.874Z,1.53
2023-03-04T21:49:26.360Z,1.64
2023-03-04T21:51:53.665Z,1.56
2023-03-04T21:54:20.934Z,1.43
2023-03-04T21:56:49.443Z,1.34
2023-03-04T21:59:19.534Z,1.32
2023-03-04T22:01:46.929Z,1.45
2023-03-04T22:04:14.244Z,1.38
2023-03-04T22:06:41.597Z,1.32
2023-03-04T22:09:09.666Z,1.09
2023-03-04T22:11:36.969Z,1.00
2023-03-04T22:14:04.325Z,0.85
2023-03-04T22:16:35.386Z,0.89
2023-03-04T22:19:04.674Z,0.99
2023-03-04T22:21:31.944Z,0.98
2023-03-04T22:23:59.467Z,0.96
2023-03-04T22:26:31.689Z,0.88
2023-03-04T22:29:00.778Z,0.80
2023-03-04T22:31:32.697Z,0.83
2023-03-04T22:34:01.618Z,0.74
2023-03-04T22:36:29.635Z,0.76
2023-03-04T22:38:56.858Z,0.72
2023-03-04T22:41:24.112Z,0.58
2023-03-04T22:43:51.501Z,0.56
2023-03-04T22:46:25.580Z,0.45
2023-03-04T22:48:54.199Z,0.37
2023-03-04T22:51:21.545Z,0.47
2023-03-04T22:53:49.019Z,0.43
2023-03-04T22:56:16.298Z,0.47
2023-03-04T22:58:44.405Z,0.33
2023-03-04T23:01:12.426Z,0.34
2023-03-04T23:03:40.218Z,0.39
2023-03-04T23:06:09.231Z,0.33
2023-03-04T23:08:36.748Z,0.38
2023-03-04T23:11:09.040Z,0.45
2023-03-04T23:13:36.547Z,0.40
2023-03-04T23:16:06.298Z,0.44
2023-03-04T23:18:34.816Z,0.34
2023-03-04T23:21:13.071Z,0.25
2023-03-04T23:23:40.509Z,0.15
2023-03-04T23:26:17.500Z,0.26
2023-03-04T23:28:44.840Z,0.34
2023-03-04T23:31:14.874Z,0.37
2023-03-04T23:33:46.018Z,0.45
2023-03-04T23:36:15.549Z,0.52
2023-03-04T23:38:43.813Z,0.54
2023-03-04T23:41:12.683Z,0.69
2023-03-04T23:43:40.061Z,0.64
2023-03-04T23:46:09.394Z,0.79
2023-03-04T23:48:36.883Z,0.74
2023-03-04T23:51:04.447Z,0.82
2023-03-04T23:53:33.170Z,0.83
2023-03-04T23:56:00.544Z,0.90
2023-03-04T23:58:27.792Z,0.87
